Time;durP1;ratioP1;P1;durP2;ratioP2;P2;SDS_P1;SDS_P2;PMS_P1;PMS_P2;Temp;Humidity;BMP_temperature;BMP_pressure;BME280_temperature;BME280_humidity;BME280_pressure;Samples;Min_cycle;Max_cycle;Signal;HPM_P1;HPM_P2
2022/08/28 00:13:57;;;;;;;10.85;3.58;;;;;;;21.93;52.88;99823.33;1654663;82;21137;-70
2022/08/28 00:16:23;;;;;;;10.80;3.12;;;;;;;21.98;51.70;99817.86;1662009;84;21006;-70
2022/08/28 00:22:37;;;;;;;12.88;3.75;;;;;;;22.05;50.50;99815.67;1646920;81;21045;-69
2022/08/28 00:25:10;;;;;;;14.05;4.08;;;;;;;22.11;49.63;99813.23;1663433;85;20991;-69
2022/08/28 00:35:17;;;;;;;6.62;2.37;;;;;;;22.26;48.16;99809.63;1646403;83;21449;31
2022/08/28 00:37:45;;;;;;;13.15;3.62;;;;;;;22.34;48.18;99813.14;1636977;85;21565;-70
2022/08/28 00:40:17;;;;;;;12.58;3.72;;;;;;;22.39;47.50;99809.58;1634364;86;21120;-73
2022/08/28 00:45:33;;;;;;;11.12;2.87;;;;;;;22.51;47.05;99803.83;1716232;80;21002;-71
2022/08/28 00:48:00;;;;;;;11.90;3.80;;;;;;;22.53;46.50;99807.88;1748673;80;21475;-70
2022/08/28 00:52:04;;;;;;;10.58;3.40;;;;;;;22.58;46.63;99816.53;1695306;80;21114;-70
2022/08/28 00:53:02;;;;;;;11.68;3.20;;;;;;;22.63;46.53;99818.42;1664791;84;21006;-69
2022/08/28 00:55:54;;;;;;;9.80;2.35;;;;;;;22.64;46.64;99821.38;1724267;80;21568;31
2022/08/28 01:17:32;;;;;;;;;;;;;;;22.68;46.69;99805.61;1722595;81;21085;-69
2022/08/28 01:20:04;;;;;;;9.45;2.55;;;;;;;22.66;47.05;99811.05;1758869;81;20141;-68
2022/08/28 01:22:52;;;;;;;12.47;3.22;;;;;;;22.58;46.95;99802.95;1699838;81;21938;-70
2022/08/28 01:25:23;;;;;;;10.38;3.22;;;;;;;22.55;47.28;99804.89;1731561;83;21460;-69
2022/08/28 01:27:50;;;;;;;17.42;2.72;;;;;;;22.52;47.39;99800.00;1699286;81;21057;-69
2022/08/28 01:30:23;;;;;;;11.45;2.98;;;;;;;22.49;47.34;99799.20;1734420;81;21015;-71
2022/08/28 01:35:51;;;;;;;13.43;3.20;;;;;;;22.48;47.18;99790.25;1687715;81;21269;-68
2022/08/28 01:38:18;;;;;;;13.75;3.75;;;;;;;22.47;47.49;99782.38;1710091;83;21472;-71
2022/08/28 01:40:47;;;;;;;13.05;2.85;;;;;;;22.46;47.80;99781.58;1712222;84;21071;-68
2022/08/28 01:46:23;;;;;;;11.40;3.00;;;;;;;22.34;49.33;99763.47;1671082;81;21142;31
2022/08/28 01:48:50;;;;;;;10.70;3.08;;;;;;;22.25;49.82;99754.26;1689671;84;21022;-69
2022/08/28 01:51:16;;;;;;;17.50;2.87;;;;;;;22.22;49.77;99748.83;1683552;84;21567;-69
2022/08/28 01:53:53;;;;;;;11.43;2.55;;;;;;;22.21;49.66;99749.94;1683308;81;21461;31
2022/08/28 01:56:19;;;;;;;;;;;;;;;22.22;49.27;99744.75;1705312;82;21037;-70
2022/08/28 01:58:49;;;;;;;10.20;2.47;;;;;;;22.26;48.50;99739.05;1700037;83;20178;-69
2022/08/28 02:01:54;;;;;;;11.22;2.67;;;;;;;22.26;47.62;99739.61;1699251;80;21511;31
2022/08/28 02:04:20;;;;;;;11.15;2.58;;;;;;;22.35;47.67;99741.44;1646822;86;21060;-68
2022/08/28 02:06:46;;;;;;;7.33;2.47;;;;;;;22.42;47.65;99741.14;1646264;86;21030;-70
2022/08/28 02:09:12;;;;;;;20.57;3.08;;;;;;;22.47;47.61;99740.28;1658278;81;21104;-73
2022/08/28 02:11:41;;;;;;;11.90;3.42;;;;;;;22.51;47.32;99739.45;1701931;83;21094;-72
2022/08/28 02:17:54;;;;;;;13.65;2.65;;;;;;;22.62;47.21;99732.58;1669186;80;21727;31
2022/08/28 02:20:22;;;;;;;11.80;2.70;;;;;;;22.64;46.86;99743.45;1698391;83;21153;-70
2022/08/28 02:23:20;;;;;;;14.40;2.83;;;;;;;22.65;46.82;99742.34;1728960;80;21007;31
2022/08/28 02:25:46;;;;;;;7.00;2.77;;;;;;;22.65;46.88;99745.05;1675871;85;21083;-74
2022/08/28 02:28:12;;;;;;;16.27;3.30;;;;;;;22.64;47.10;99747.52;1666116;84;21784;-69
2022/08/28 02:30:39;;;;;;;14.30;3.67;;;;;;;22.63;47.14;99749.16;1683759;83;21101;-70
2022/08/28 02:33:07;;;;;;;14.75;3.42;;;;;;;22.63;47.10;99755.39;1721123;80;21113;-71
2022/08/28 02:35:34;;;;;;;11.15;3.40;;;;;;;22.62;47.12;99752.42;1683324;84;21052;-70
2022/08/28 02:38:00;;;;;;;12.13;3.90;;;;;;;22.62;47.06;99748.35;1728646;81;21016;-81
2022/08/28 02:41:05;;;;;;;9.90;3.20;;;;;;;22.63;47.16;99755.95;1708320;81;21216;31
2022/08/28 02:43:32;;;;;;;14.85;4.22;;;;;;;22.63;47.17;99746.44;1698393;83;21036;-72
2022/08/28 02:45:59;;;;;;;12.18;3.60;;;;;;;22.60;47.19;99746.99;1700488;83;21140;-69
2022/08/28 02:48:31;;;;;;;13.78;4.12;;;;;;;22.58;47.35;99749.98;1717122;81;21100;-76
2022/08/28 02:51:01;;;;;;;13.28;3.87;;;;;;;22.56;47.41;99750.81;1687106;83;21034;-70
2022/08/28 02:56:17;;;;;;;16.75;3.22;;;;;;;22.48;47.74;99760.94;1695831;80;21106;-71
2022/08/28 02:58:43;;;;;;;16.75;2.90;;;;;;;22.43;47.96;99759.05;1670399;84;21541;-71
2022/08/28 03:04:54;;;;;;;18.15;4.35;;;;;;;22.45;47.30;99764.20;1647639;82;21099;-73
2022/08/28 03:07:21;;;;;;;9.58;3.30;;;;;;;22.46;46.40;99768.00;1653454;86;21066;-74
2022/08/28 03:09:49;;;;;;;15.50;4.22;;;;;;;22.49;46.50;99767.44;1654008;86;21086;-79
2022/08/28 03:16:14;;;;;;;15.03;4.35;;;;;;;22.57;46.58;99763.88;1757956;79;21056;31
2022/08/28 03:21:36;;;;;;;17.57;4.17;;;;;;;22.57;46.88;99771.47;1759981;79;21216;-71
2022/08/28 03:24:03;;;;;;;14.98;5.08;;;;;;;22.55;46.97;99777.17;1771308;79;20929;-72
2022/08/28 03:26:54;;;;;;;13.45;5.00;;;;;;;22.55;47.34;99777.73;1762662;79;21162;31
2022/08/28 03:32:09;;;;;;;14.13;4.12;;;;;;;22.51;47.55;99788.34;1736816;79;21120;-74
2022/08/28 03:34:37;;;;;;;12.47;3.87;;;;;;;22.47;47.59;99799.50;1770960;79;22038;-75
2022/08/28 03:37:03;;;;;;;19.65;3.35;;;;;;;22.47;47.03;99797.31;1766346;79;21004;-73
2022/08/28 03:42:15;;;;;;;17.45;4.90;;;;;;;22.55;46.72;99815.20;1764247;79;21329;-73
2022/08/28 03:44:41;;;;;;;18.45;4.37;;;;;;;22.57;46.78;99821.71;1766329;79;21020;-73
2022/08/28 03:47:07;;;;;;;20.72;4.12;;;;;;;22.55;48.00;99834.20;1768557;79;21003;-75
2022/08/28 03:49:34;;;;;;;15.35;4.40;;;;;;;22.47;48.70;99844.31;1734032;79;21039;-74
2022/08/28 03:52:00;;;;;;;19.25;4.85;;;;;;;22.29;49.26;99852.52;1730726;81;21472;-75
2022/08/28 03:54:26;;;;;;;10.95;4.12;;;;;;;22.17;49.42;99852.02;1730133;81;21025;-69
2022/08/28 03:56:52;;;;;;;10.78;4.30;;;;;;;22.09;49.69;99849.85;1738353;77;21125;-68
2022/08/28 03:59:20;;;;;;;15.23;4.85;;;;;;;22.00;50.09;99858.29;1761212;80;21044;-68
2022/08/28 04:01:46;;;;;;;21.23;4.90;;;;;;;21.90;50.41;99848.28;1728623;81;21061;-71
2022/08/28 04:04:36;;;;;;;10.35;4.50;;;;;;;21.83;50.88;99843.69;1704203;80;21207;31
2022/08/28 04:07:02;;;;;;;12.60;5.37;;;;;;;21.76;51.25;99849.41;1650315;85;21081;-74
2022/08/28 04:09:29;;;;;;;14.38;5.05;;;;;;;21.68;51.48;99845.36;1647461;85;21061;-68
2022/08/28 04:14:57;;;;;;;30.20;6.47;;;;;;;21.61;52.02;99839.95;1708023;81;21117;-71
2022/08/28 04:17:24;;;;;;;23.83;6.37;;;;;;;21.45;52.90;99846.73;1709681;82;21152;-70
2022/08/28 04:19:53;;;;;;;16.48;6.10;;;;;;;21.30;53.30;99847.52;1731846;81;21444;-71
2022/08/28 04:22:20;;;;;;;13.60;6.03;;;;;;;21.18;53.82;99851.86;1727229;80;21109;-68
2022/08/28 04:24:46;;;;;;;10.50;5.53;;;;;;;21.12;53.96;99847.53;1701282;83;21063;-71
2022/08/28 04:27:13;;;;;;;13.68;5.55;;;;;;;;;;1695207;83;21065;-74
2022/08/28 04:29:41;;;;;;;11.93;6.20;;;;;;;21.06;54.24;99845.91;1699452;83;21048;-76
2022/08/28 04:32:07;;;;;;;15.45;6.67;;;;;;;21.03;54.46;99843.72;1725929;81;21587;-77
2022/08/28 04:34:38;;;;;;;19.17;6.78;;;;;;;20.99;54.79;99844.00;1726149;81;21019;-74
2022/08/28 04:37:05;;;;;;;18.25;6.22;;;;;;;20.95;54.68;99843.72;1729968;81;21874;-75
2022/08/28 04:39:32;;;;;;;11.85;5.60;;;;;;;20.93;55.02;99836.95;1730830;81;21576;-72
2022/08/28 04:41:58;;;;;;;10.58;6.45;;;;;;;20.92;55.18;99836.67;1729973;81;21008;-73
2022/08/28 04:44:24;;;;;;;17.98;6.45;;;;;;;20.87;55.07;99832.59;1700552;83;21000;-71
2022/08/28 04:46:51;;;;;;;10.60;5.58;;;;;;;20.81;54.97;99827.70;1731149;81;21038;-70
2022/08/28 04:49:17;;;;;;;11.43;6.03;;;;;;;20.78;55.03;99820.94;1730398;81;20961;-75
2022/08/28 04:51:43;;;;;;;;;;;;;;;20.82;55.10;99823.13;1734086;81;20976;-77
2022/08/28 04:54:09;;;;;;;16.93;7.12;;;;;;;20.84;55.05;99821.77;1693703;83;20193;-74
2022/08/28 04:56:36;;;;;;;11.50;6.28;;;;;;;20.80;54.98;99826.09;1681893;83;21541;-74
2022/08/28 04:59:03;;;;;;;12.47;6.25;;;;;;;20.82;54.90;99825.83;1678789;82;21088;-73
2022/08/28 05:01:30;;;;;;;17.52;6.65;;;;;;;20.86;55.00;99826.92;1711262;82;20941;-75
2022/08/28 05:04:01;;;;;;;13.45;5.83;;;;;;;20.86;54.87;99825.02;1722859;82;21925;-73
2022/08/28 05:06:29;;;;;;;16.27;6.62;;;;;;;20.91;55.01;99825.03;1721767;82;20994;-73
2022/08/28 05:08:58;;;;;;;10.65;5.42;;;;;;;20.94;54.84;99816.34;1721583;82;21100;-74
2022/08/28 05:11:27;;;;;;;12.88;5.58;;;;;;;21.00;54.54;99823.94;1717969;82;20978;-73
2022/08/28 05:13:54;;;;;;;6.90;5.00;;;;;;;21.03;54.39;99823.41;1705635;82;20962;-74
2022/08/28 05:16:21;;;;;;;10.48;5.37;;;;;;;21.05;54.32;99821.23;1707823;82;21085;-73
2022/08/28 05:18:49;;;;;;;9.23;6.08;;;;;;;21.07;54.12;99827.19;1669769;81;21170;-72
2022/08/28 05:21:19;;;;;;;;;;;;;;;21.11;54.03;99828.83;1653271;85;21543;-70
2022/08/28 05:23:50;;;;;;;13.83;5.47;;;;;;;21.13;53.95;99830.16;1680927;84;20212;-71
2022/08/28 05:26:19;;;;;;;27.80;8.30;;;;;;;21.10;54.06;99828.02;1694503;83;21073;-71
2022/08/28 05:28:46;;;;;;;;;;;;;;;21.11;54.00;99831.53;1722116;82;20955;-71
2022/08/28 05:31:17;;;;;;;16.20;6.28;;;;;;;21.13;54.04;99830.72;1715132;82;20089;-72
2022/08/28 05:33:46;;;;;;;17.55;5.22;;;;;;;21.07;54.09;99828.55;1691146;82;21549;-70
2022/08/28 05:36:13;;;;;;;13.93;6.20;;;;;;;;;;1746562;80;22684;-73
2022/08/28 05:38:40;;;;;;;16.02;6.22;;;;;;;21.12;54.08;99835.33;1717261;82;21056;-71
2022/08/28 05:41:07;;;;;;;8.40;5.03;;;;;;;21.13;54.08;99830.16;1724849;81;21570;-77
2022/08/28 05:43:35;;;;;;;12.95;5.80;;;;;;;21.12;54.07;99820.98;1720131;79;21090;-72
2022/08/28 05:46:08;;;;;;;12.40;5.50;;;;;;;21.12;54.21;99828.56;1691894;82;21136;-70
2022/08/28 05:48:33;;;;;;;13.22;5.33;;;;;;;21.17;54.23;99825.86;1726977;79;21353;-71
2022/08/28 05:51:13;;;;;;;14.53;6.08;;;;;;;21.22;54.15;99822.32;1742748;81;21017;-70
2022/08/28 05:53:42;;;;;;;14.45;5.87;;;;;;;21.27;54.09;99826.39;1740219;81;21021;-72
2022/08/28 05:59:34;;;;;;;10.30;6.20;;;;;;;21.36;54.26;99829.34;1744490;81;21402;-90
2022/08/28 06:02:07;;;;;;;15.30;5.70;;;;;;;21.36;54.60;99834.25;1749983;81;20994;-93
2022/08/28 06:05:03;;;;;;;17.90;8.80;;;;;;;21.37;54.79;99834.50;1738262;81;21585;-93
2022/08/28 06:07:40;;;;;;;19.77;6.17;;;;;;;21.37;55.47;99842.64;1677048;83;21622;-92
2022/08/28 06:10:11;;;;;;;14.83;6.62;;;;;;;21.34;56.49;99842.37;1691277;83;21016;-93
2022/08/28 06:12:53;;;;;;;14.90;5.45;;;;;;;21.31;58.78;99854.58;1696283;81;21007;-93
2022/08/28 06:15:19;;;;;;;12.10;6.58;;;;;;;21.27;57.06;99871.66;1725393;81;21059;-94
2022/08/28 06:17:54;;;;;;;19.15;7.05;;;;;;;21.29;57.18;99868.94;1729394;81;21064;-93
2022/08/28 06:20:24;;;;;;;12.25;6.30;;;;;;;21.28;57.81;99863.78;1682292;82;20996;-91
2022/08/28 06:23:04;;;;;;;12.47;7.12;;;;;;;21.25;58.52;99866.51;1669609;82;21098;-92
2022/08/28 06:25:48;;;;;;;13.28;6.95;;;;;;;21.22;58.91;99866.23;1673450;83;21546;-92
2022/08/28 06:28:20;;;;;;;23.32;8.30;;;;;;;20.15;59.29;99706.00;1674737;84;21546;-92
2022/08/28 06:30:54;;;;;;;14.00;7.10;;;;;;;21.16;58.68;99864.06;1697085;83;21023;-91
2022/08/28 06:33:30;;;;;;;10.53;6.78;;;;;;;21.13;58.65;99868.66;1656778;81;20983;-93
2022/08/28 06:36:06;;;;;;;19.60;7.55;;;;;;;21.13;59.05;99870.81;1671213;82;21027;-92
2022/08/28 06:38:37;;;;;;;12.95;7.87;;;;;;;21.12;59.43;99876.53;1708033;81;20956;-92
2022/08/28 06:41:10;;;;;;;9.90;7.08;;;;;;;21.06;59.93;99864.87;1693581;82;20991;-92
2022/08/28 06:47:01;;;;;;;18.73;8.15;;;;;;;20.97;60.96;99869.19;1705437;80;85420;-74
2022/08/28 06:49:28;;;;;;;19.40;7.72;;;;;;;20.94;62.57;99860.23;1726932;82;21221;-73
2022/08/28 06:51:55;;;;;;;;;;;;;;;20.90;62.59;99860.51;1733779;82;21025;-69
2022/08/28 07:02:04;;;;;;;20.12;6.67;;;;;;;20.97;63.45;99860.52;1651457;80;21522;31
2022/08/28 07:04:31;;;;;;;13.50;6.80;;;;;;;21.06;63.16;99868.94;1689713;84;21035;-71
2022/08/28 07:06:57;;;;;;;;;;;;;;;21.18;62.48;99868.67;1694997;84;21511;-71
2022/08/28 07:18:31;;;;;;;12.25;6.05;;;;;;;21.49;61.53;99863.27;1683193;81;21481;31
2022/08/28 07:21:39;;;;;;;14.23;7.33;;;;;;;21.60;61.16;99866.79;1660577;81;23481;31
2022/08/28 07:31:36;;;;;;;17.05;7.97;;;;;;;22.12;61.34;99853.38;1695966;79;21088;-71
2022/08/28 07:34:02;;;;;;;15.98;7.15;;;;;;;22.30;60.83;99859.59;1702964;83;21033;-71
2022/08/28 07:51:42;;;;;;;19.85;6.33;;;;;;;23.20;57.29;99856.91;1689851;79;21068;31
2022/08/28 08:24:30;;;;;;;14.43;4.72;;;;;;;25.75;45.23;99846.55;1715393;78;21143;31
2022/08/28 08:26:59;;;;;;;14.75;4.85;;;;;;;25.70;45.60;99839.00;1717979;78;21184;-72
2022/08/28 08:29:30;;;;;;;20.90;5.75;;;;;;;25.59;45.89;99834.28;1761184;79;21084;-75
2022/08/28 08:32:03;;;;;;;15.35;4.72;;;;;;;25.60;45.95;99829.09;1784362;79;21097;-76
2022/08/28 08:34:28;;;;;;;13.18;3.67;;;;;;;25.68;45.56;99828.38;1706559;78;21059;-75
2022/08/28 08:36:54;;;;;;;16.87;5.25;;;;;;;25.73;45.52;99825.56;1679909;83;21498;-77
2022/08/28 08:39:20;;;;;;;16.67;5.25;;;;;;;25.73;45.46;99825.56;1693025;84;21097;-78
2022/08/28 08:41:52;;;;;;;18.55;5.62;;;;;;;25.77;45.00;99822.48;1678118;81;21224;-76
2022/08/28 08:44:35;;;;;;;16.62;5.70;;;;;;;25.82;44.78;99818.30;1699441;83;21021;-79
2022/08/28 08:49:41;;;;;;;14.58;5.87;;;;;;;25.94;45.04;99812.91;1624750;87;21899;-76
2022/08/28 08:52:21;;;;;;;20.40;6.10;;;;;;;25.78;44.88;99771.42;1622186;87;21053;-76
2022/08/28 08:57:56;;;;;;;12.35;4.67;;;;;;;26.21;43.51;99823.00;1651213;82;21508;-78
2022/08/28 09:00:22;;;;;;;19.45;6.08;;;;;;;26.16;43.48;99817.09;1670008;82;21070;-76
2022/08/28 09:03:05;;;;;;;13.65;4.58;;;;;;;26.21;42.35;99812.88;1669527;82;21084;-76
2022/08/28 09:05:46;;;;;;;11.05;4.60;;;;;;;26.28;42.46;99811.11;1639339;85;21155;-79
2022/08/28 09:08:39;;;;;;;14.07;5.45;;;;;;;26.36;41.71;99815.03;1656957;82;21075;-78
2022/08/28 09:15:07;;;;;;;11.53;4.15;;;;;;;26.60;41.29;99818.34;1657795;81;21241;-78
2022/08/28 09:17:40;;;;;;;18.75;4.95;;;;;;;26.81;40.83;99821.98;1661268;85;21592;-78
2022/08/28 09:20:10;;;;;;;10.58;4.08;;;;;;;26.93;40.51;99822.22;1652605;85;21595;-78
2022/08/28 09:22:45;;;;;;;14.45;4.35;;;;;;;27.09;39.69;99820.50;1656453;80;21212;-79
2022/08/28 09:25:32;;;;;;;13.62;4.58;;;;;;;27.22;38.41;99815.52;1791579;78;21026;-77
2022/08/28 09:28:08;;;;;;;16.95;4.70;;;;;;;27.25;37.86;99816.80;1714940;80;21166;-78
2022/08/28 09:30:36;;;;;;;12.25;4.55;;;;;;;27.19;38.19;99815.56;1702142;83;21542;-78
2022/08/28 09:33:03;;;;;;;10.68;4.53;;;;;;;27.19;38.57;99816.13;1753555;80;21585;-78
2022/08/28 09:35:32;;;;;;;15.60;5.12;;;;;;;27.23;38.59;99824.52;1789165;80;20988;-80
2022/08/28 09:38:21;;;;;;;13.78;3.85;;;;;;;27.32;39.44;99819.38;1789801;80;21005;-77
2022/08/28 09:43:36;;;;;;;11.00;4.30;;;;;;;27.47;39.23;99811.90;1794774;80;21003;-78
2022/08/28 09:46:19;;;;;;;13.10;4.12;;;;;;;27.50;37.95;99816.72;1752951;78;21120;-77
2022/08/28 09:48:51;;;;;;;12.80;4.47;;;;;;;27.43;37.98;99811.72;1721643;82;21039;-80
2022/08/28 09:51:25;;;;;;;10.30;4.22;;;;;;;27.37;38.16;99812.41;1707243;81;21105;-78
2022/08/28 09:53:56;;;;;;;6.70;2.65;;;;;;;27.37;36.94;99816.52;1730043;82;21017;-78
2022/08/28 09:56:34;;;;;;;8.30;2.95;;;;;;;27.43;35.81;99810.34;1692883;82;21199;31
2022/08/28 09:59:17;;;;;;;17.10;3.33;;;;;;;27.49;36.00;99811.02;1726764;82;21006;-77
2022/08/28 10:02:09;;;;;;;5.83;2.77;;;;;;;27.52;35.53;99815.84;1655467;81;21155;31
2022/08/28 10:04:46;;;;;;;7.00;2.47;;;;;;;27.50;35.49;99809.88;1621160;87;21129;-77
2022/08/28 10:07:33;;;;;;;9.68;3.17;;;;;;;27.48;34.65;99806.66;1678587;81;21071;-77
2022/08/28 10:10:29;;;;;;;15.75;3.45;;;;;;;27.49;34.75;99806.91;1671749;84;21036;-78
2022/08/28 10:13:30;;;;;;;9.37;2.13;;;;;;;27.56;34.32;99810.81;1622640;85;21500;31
2022/08/28 10:16:13;;;;;;;5.55;2.33;;;;;;;27.56;33.96;99805.34;1764621;80;21029;-78
2022/08/28 10:19:19;;;;;;;4.95;2.08;;;;;;;27.52;33.66;99817.21;1737321;81;21075;-77
2022/08/28 10:22:18;;;;;;;14.98;2.50;;;;;;;27.47;33.78;99814.64;1705777;81;21132;-78
2022/08/28 10:25:02;;;;;;;8.83;2.37;;;;;;;27.41;33.79;99819.97;1708096;81;21134;-77
2022/08/28 10:27:51;;;;;;;13.95;2.67;;;;;;;27.36;33.71;99814.89;1719445;81;21068;-79
2022/08/28 10:30:22;;;;;;;5.72;2.50;;;;;;;27.42;33.92;99815.56;1693800;81;21220;-78
2022/08/28 10:32:59;;;;;;;10.55;3.52;;;;;;;27.52;34.50;99807.63;1703780;82;21101;-79
2022/08/28 10:35:59;;;;;;;10.65;2.70;;;;;;;27.62;33.91;99816.16;1725609;80;21101;-77
2022/08/28 10:47:53;;;;;;;5.05;2.50;;;;;;;27.41;33.23;99810.39;1660478;82;21186;-78
2022/08/28 10:50:25;;;;;;;8.93;2.20;;;;;;;27.24;32.95;99811.08;1616984;87;21040;-79
2022/08/28 10:53:02;;;;;;;4.67;2.00;;;;;;;27.10;32.96;99809.22;1671451;82;21613;-78
2022/08/28 10:55:40;;;;;;;11.38;2.72;;;;;;;27.00;33.24;99810.28;1674505;83;21059;-80
2022/08/28 10:58:08;;;;;;;3.52;2.40;;;;;;;26.92;33.58;99811.61;1706388;81;21073;-78
2022/08/28 11:00:35;;;;;;;7.00;3.37;;;;;;;26.89;34.14;99809.48;1733758;81;21026;-80
2022/08/28 11:03:07;;;;;;;6.87;3.37;;;;;;;26.88;34.22;99822.36;1707915;83;21548;-79
2022/08/28 11:05:41;;;;;;;9.38;2.80;;;;;;;26.89;33.96;99823.95;1713936;81;21035;-79
2022/08/28 11:08:13;;;;;;;4.45;2.60;;;;;;;26.97;33.85;99816.40;1745730;80;21532;-80
2022/08/28 11:14:00;;;;;;;7.22;3.65;;;;;;;27.18;32.39;99815.87;1729973;81;21113;-80
2022/08/28 11:16:32;;;;;;;7.47;3.90;;;;;;;27.27;31.36;99819.50;1740671;82;21105;-79
2022/08/28 11:19:39;;;;;;;8.63;4.65;;;;;;;27.31;30.45;99823.25;1717654;82;21146;-77
2022/08/28 11:22:28;;;;;;;11.30;4.25;;;;;;;27.35;30.86;99824.23;1730948;79;22787;-79
2022/08/28 11:25:23;;;;;;;12.30;5.80;;;;;;;27.34;31.33;99828.08;1757988;81;21025;-79
2022/08/28 11:28:24;;;;;;;5.50;3.90;;;;;;;27.32;31.78;99827.58;1755657;80;21069;-79
2022/08/28 11:31:08;;;;;;;8.08;5.80;;;;;;;27.28;32.31;99824.43;1734053;80;21544;-80
2022/08/28 11:33:46;;;;;;;10.28;7.22;;;;;;;27.21;32.19;99828.94;1775067;78;21077;-77
2022/08/28 11:36:21;;;;;;;12.95;8.83;;;;;;;27.14;32.24;99831.29;1754850;79;21115;-78
2022/08/28 11:39:14;;;;;;;10.95;9.53;;;;;;;27.09;31.99;99830.88;1773292;78;21121;-77
2022/08/28 11:42:31;;;;;;;15.25;10.38;;;;;;;27.03;31.72;99828.02;1708425;82;21124;-78
2022/08/28 11:48:42;;;;;;;13.62;11.18;;;;;;;27.06;32.91;99830.12;1687097;80;21135;31
2022/08/28 11:51:34;;;;;;;20.70;14.68;;;;;;;27.11;33.18;99839.57;1623729;87;21135;-80
2022/08/28 11:58:15;;;;;;;30.55;23.45;;;;;;;26.96;32.02;99840.75;1662206;82;21739;-78
2022/08/28 12:01:01;;;;;;;32.65;22.22;;;;;;;26.88;32.08;99846.97;1688741;81;21071;-78
2022/08/28 12:03:56;;;;;;;24.65;20.57;;;;;;;26.88;32.59;99846.97;1662386;84;21809;-77
2022/08/28 12:06:47;;;;;;;30.45;23.65;;;;;;;26.85;32.61;99848.94;1721853;82;21097;-78
2022/08/28 12:09:37;;;;;;;29.18;23.60;;;;;;;26.67;31.15;99843.88;1730596;82;22478;-80
2022/08/28 12:12:24;;;;;;;27.55;20.45;;;;;;;26.48;32.39;99841.82;1673213;82;21022;-78
2022/08/28 12:14:58;;;;;;;27.40;20.35;;;;;;;26.37;33.47;99835.77;1668118;84;21011;-77
2022/08/28 12:17:30;;;;;;;27.55;22.65;;;;;;;26.30;34.49;99832.66;1743773;79;21060;-75
2022/08/28 12:20:14;;;;;;;34.08;23.70;;;;;;;26.29;34.54;99830.47;1799671;78;21547;-79
2022/08/28 12:22:51;;;;;;;30.62;25.12;;;;;;;26.29;34.35;99836.49;1739105;80;20982;-77
2022/08/28 12:25:32;;;;;;;36.23;25.65;;;;;;;26.29;34.22;99835.13;1735853;82;21845;-79
2022/08/28 12:28:07;;;;;;;31.57;25.12;;;;;;;26.20;34.61;99836.39;1719873;80;21040;-78
2022/08/28 12:30:51;;;;;;;36.07;24.83;;;;;;;26.13;34.89;99834.65;1732173;81;21005;-76
2022/08/28 12:33:27;;;;;;;29.05;24.02;;;;;;;26.11;35.11;99836.31;1744636;79;21540;-79
2022/08/28 12:36:00;;;;;;;31.07;23.52;;;;;;;26.12;35.42;99835.19;1708076;83;21069;-79
2022/08/28 12:52:30;;;;;;;27.20;18.98;;;;;;;26.06;36.87;99831.52;1705455;80;21092;-78
2022/08/28 12:54:57;;;;;;;25.23;18.40;;;;;;;25.97;37.04;99824.58;1685676;83;21035;-78
2022/08/28 12:57:24;;;;;;;21.00;17.65;;;;;;;25.94;37.15;99823.84;1684412;80;21614;-77
2022/08/28 12:59:54;;;;;;;23.20;19.60;;;;;;;25.93;37.23;99824.38;1707297;81;21659;-77
2022/08/28 13:02:27;;;;;;;29.50;20.90;;;;;;;25.88;37.31;99823.09;1702636;82;21008;-78
2022/08/28 13:05:32;;;;;;;28.85;22.13;;;;;;;25.89;37.55;99827.43;1659338;81;21150;-80
2022/08/28 13:08:03;;;;;;;26.57;23.15;;;;;;;25.93;37.38;99824.94;1674523;83;21069;-78
2022/08/28 13:10:41;;;;;;;29.42;22.73;;;;;;;25.98;37.15;99821.55;1664406;85;21107;-79
2022/08/28 13:13:30;;;;;;;31.30;24.15;;;;;;;26.00;37.23;99819.89;1670007;82;21192;-79
2022/08/28 13:16:01;;;;;;;32.95;24.25;;;;;;;26.06;36.95;99824.13;1699848;83;21623;-77
2022/08/28 13:18:39;;;;;;;36.88;23.50;;;;;;;26.07;36.18;99820.83;1702996;81;21132;-79
2022/08/28 13:21:26;;;;;;;32.80;25.15;;;;;;;26.07;36.19;99827.66;1714741;82;21481;-78
2022/08/28 13:23:57;;;;;;;29.92;23.52;;;;;;;26.05;36.10;99819.79;1709626;81;22145;-79
2022/08/28 13:26:36;;;;;;;37.70;25.88;;;;;;;26.07;36.30;99818.92;1712679;82;21002;-76
2022/08/28 13:29:16;;;;;;;32.67;25.05;;;;;;;26.11;35.66;99814.47;1732797;81;21099;-78
2022/08/28 13:31:43;;;;;;;30.92;24.85;;;;;;;26.17;35.45;99815.97;1759709;81;21129;-76
2022/08/28 13:34:20;;;;;;;35.63;26.70;;;;;;;26.23;35.04;99812.01;1755158;80;21135;-78
2022/08/28 13:36:56;;;;;;;38.15;29.23;;;;;;;26.27;33.64;99814.14;1734494;81;21501;-77
2022/08/28 13:39:23;;;;;;;35.78;27.02;;;;;;;26.26;33.48;99811.97;1777221;79;21579;-79
2022/08/28 13:41:53;;;;;;;32.80;23.55;;;;;;;26.26;33.34;99813.34;1802242;79;21484;-78
2022/08/28 13:44:37;;;;;;;31.65;25.17;;;;;;;26.29;32.27;99809.98;1798706;79;21564;-77
2022/08/28 13:47:05;;;;;;;34.83;25.27;;;;;;;26.32;32.25;99814.03;1740277;81;21129;-79
2022/08/28 13:49:33;;;;;;;31.73;27.67;;;;;;;26.32;31.92;99820.87;1735109;81;20942;-78
2022/08/28 13:52:03;;;;;;;39.83;27.77;;;;;;;26.34;32.21;99815.91;1742844;81;21539;-79
2022/08/28 13:58:00;;;;;;;39.98;28.73;;;;;;;26.37;32.19;99820.73;1797761;79;21403;-78
2022/08/28 14:00:31;;;;;;;30.52;23.42;;;;;;;26.35;31.70;99821.06;1790971;79;21035;-79
2022/08/28 14:20:13;;;;;;;35.80;30.27;;;;;;;26.28;32.65;99836.26;1682456;81;21473;-78
2022/08/28 14:22:41;;;;;;;36.90;30.90;;;;;;;26.25;33.33;99830.03;1667323;84;21070;-80
2022/08/28 14:25:08;;;;;;;39.05;29.72;;;;;;;26.28;33.69;99834.33;1622899;86;21580;-78
2022/08/28 14:27:36;;;;;;;39.60;30.70;;;;;;;26.31;33.70;99836.42;1705393;80;21073;-79
2022/08/28 14:30:05;;;;;;;32.38;25.45;;;;;;;26.32;33.99;99839.99;1722400;81;21092;-77
2022/08/28 14:32:31;;;;;;;32.78;25.80;;;;;;;26.32;33.76;99833.16;1692700;80;22752;-76
2022/08/28 14:34:57;;;;;;;33.38;25.12;;;;;;;26.33;33.75;99844.33;1655514;84;20971;-80
2022/08/28 14:37:23;;;;;;;37.83;28.62;;;;;;;26.34;33.75;99830.36;1663249;86;21711;-79
2022/08/28 14:39:50;;;;;;;35.68;24.60;;;;;;;26.34;34.00;99830.36;1763268;79;21069;-79
2022/08/28 14:42:17;;;;;;;34.23;26.93;;;;;;;26.35;33.92;99828.44;1782970;79;20994;-79
2022/08/28 14:44:44;;;;;;;35.00;24.75;;;;;;;26.37;34.25;99830.30;1773616;80;21061;-78
2022/08/28 14:54:00;;;;;;;34.80;28.07;;;;;;;26.38;35.20;99838.19;1703588;81;21047;-78
2022/08/28 14:56:30;;;;;;;37.98;28.12;;;;;;;26.31;35.81;99843.83;1738943;81;21066;-78
2022/08/28 14:58:59;;;;;;;40.63;28.65;;;;;;;26.31;36.11;99836.99;1727467;79;21643;-77
2022/08/28 15:01:37;;;;;;;35.63;29.02;;;;;;;26.31;36.51;99839.73;1669681;84;21003;-78
2022/08/28 15:04:06;;;;;;;39.08;31.07;;;;;;;26.32;36.58;99841.36;1707406;81;21069;-78
2022/08/28 15:06:32;;;;;;;36.42;28.30;;;;;;;26.33;36.94;99840.22;1716483;82;21059;-78
2022/08/28 15:08:59;;;;;;;34.88;27.90;;;;;;;26.35;37.04;99843.45;1722771;82;20982;-80
2022/08/28 15:11:28;;;;;;;38.53;27.48;;;;;;;26.34;37.50;99837.19;1709235;81;21140;-79
2022/08/28 15:13:57;;;;;;;36.08;26.27;;;;;;;26.32;37.53;99847.63;1678015;84;21134;-81
2022/08/28 15:22:38;;;;;;;27.73;23.75;;;;;;;26.29;38.15;99841.95;1701813;80;21560;31
2022/08/28 15:25:05;;;;;;;29.05;21.90;;;;;;;26.27;38.45;99847.72;1711469;82;21140;-80
2022/08/28 15:27:32;;;;;;;28.00;21.07;;;;;;;26.25;39.05;99847.22;1696959;84;21059;-78
2022/08/28 15:29:58;;;;;;;29.85;21.62;;;;;;;26.21;39.87;99849.75;1705838;79;21167;-75
2022/08/28 15:32:24;;;;;;;23.55;20.15;;;;;;;26.11;40.55;99852.70;1715102;82;21112;-77
2022/08/28 15:34:51;;;;;;;19.87;17.48;;;;;;;26.04;40.33;99856.39;1709510;82;21073;-77
2022/08/28 15:43:05;;;;;;;17.95;11.40;;;;;;;25.78;39.70;99852.74;1774121;79;21126;-79
2022/08/28 15:53:15;;;;;;;29.80;25.88;;;;;;;25.59;41.24;99867.83;1733137;79;21088;-79
2022/08/28 15:55:41;;;;;;;38.15;33.05;;;;;;;25.48;43.90;99860.12;1801891;78;21665;-79
2022/08/28 15:58:08;;;;;;;38.73;33.90;;;;;;;25.41;44.64;99864.06;1778495;79;21012;-80
2022/08/28 16:11:02;;;;;;;55.78;44.85;;;;;;;24.94;45.65;99863.15;1649714;87;21196;-79
2022/08/28 16:13:28;;;;;;;53.73;43.40;;;;;;;24.80;44.96;99862.26;1646130;87;21060;-78